Date,TemperatureHighF,TemperatureAvgF,TemperatureLowF,DewpointHighF,DewpointAvgF,DewpointLowF,HumidityHigh,HumidityAvg,HumidityLow,PressureMaxIn,PressureMinIn,WindSpeedMaxMPH,WindSpeedAvgMPH,GustSpeedMaxMPH,PrecipitationSumIn
2014-1-1,53.7,40.7,26.9,43.2,33.3,25.1,95,77,47,30.32,29.94,8,1,8,0.01
2014-1-2,49.0,33.5,21.6,46.4,28.2,15.8,96,81,68,30.47,29.90,15,2,15,0.00
2014-1-3,33.9,24.8,16.7,18.8,15.7,13.6,89,70,45,30.55,30.25,6,1,6,0.00
2014-1-4,49.7,38.6,25.2,39.7,24.3,16.9,75,58,35,30.26,29.97,13,3,13,0.00
2014-1-5,50.4,37.7,17.8,49.0,33.5,10.9,95,85,74,30.32,29.65,11,4,12,0.24
2014-1-6,17.8,12.5,9.4,10.8,1.2,-3.2,74,60,50,30.64,30.32,12,3,12,0.00
2014-1-7,27.9,16.8,5.1,13.2,5.7,-2.7,85,62,43,30.64,30.44,7,1,11,0.00
2014-1-8,43.3,31.9,19.3,27.0,17.1,11.6,87,56,33,30.52,30.37,6,0,6,0.02
2014-1-9,39.9,35.1,32.1,37.3,32.6,25.9,95,91,73,30.43,30.19,6,1,6,0.50
2014-1-10,54.9,48.5,40.1,53.8,46.4,37.0,97,92,84,30.19,29.64,10,2,10,0.68
2014-1-11,55.9,48.9,41.2,55.1,43.8,36.8,97,83,68,30.01,29.66,11,2,11,0.06
2014-1-12,61.6,48.1,32.6,41.3,35.9,30.6,96,66,38,30.11,29.88,11,2,11,0.00
2014-1-13,56.2,50.4,41.1,53.1,47.2,37.3,97,89,49,29.93,29.75,11,1,11,0.63
2014-1-14,59.4,46.4,34.0,40.4,34.7,24.6,92,66,39,30.11,29.89,16,2,16,0.01
2014-1-15,41.8,31.7,23.5,25.2,19.4,15.7,83,61,47,30.23,30.10,9,1,9,0.00
2014-1-16,52.4,39.3,23.3,38.9,27.5,18.8,84,64,46,30.12,29.83,17,2,17,0.00
2014-1-17,40.0,33.2,25.7,30.0,19.6,14.4,73,58,41,30.19,29.90,7,2,14,0.00
2014-1-18,54.5,39.8,22.3,33.0,23.0,14.5,81,53,32,30.19,29.80,23,2,23,0.00
2014-1-19,50.1,40.9,30.3,31.0,27.6,24.8,81,60,41,30.22,29.93,11,1,11,0.00
2014-1-20,64.8,51.0,40.3,38.4,32.5,27.9,70,51,31,30.00,29.83,10,1,10,0.00
2014-1-21,46.5,29.7,18.4,35.6,19.3,11.5,77,65,55,30.30,29.91,18,2,18,0.00
2014-1-22,37.8,25.8,15.8,21.1,15.7,11.6,88,67,44,30.25,30.11,8,1,11,0.00
2014-1-23,29.9,22.1,13.9,21.9,8.8,1.3,85,57,42,30.80,30.25,10,1,10,0.00
2014-1-24,32.2,20.3,6.7,8.4,3.6,-0.7,87,52,26,30.79,30.14,12,2,12,0.00
2014-1-25,54.7,40.4,28.4,28.8,20.8,7.7,71,46,35,30.14,29.91,16,2,16,0.00
2014-1-26,63.0,46.4,28.0,38.5,32.6,23.8,87,61,40,29.98,29.73,18,2,18,0.00
2014-1-27,51.8,29.8,20.3,37.5,11.3,0.1,73,47,32,30.42,29.81,12,2,12,0.00
2014-1-28,25.9,17.7,11.2,5.0,1.0,-4.1,71,48,31,30.51,30.39,6,1,10,0.00
2014-1-29,35.1,20.4,6.7,8.5,5.0,1.1,88,55,31,30.51,30.31,7,0,7,0.00
2014-1-30,45.1,30.9,17.2,13.6,9.1,4.5,74,43,21,30.32,30.01,11,1,11,0.00
2014-1-31,55.8,46.7,37.9,44.7,32.1,11.7,84,58,33,30.11,29.95,8,1,8,0.00
2014-2-1,67.7,59.6,52.0,55.6,48.7,36.8,85,67,55,29.97,29.85,14,2,14,0.00
2014-2-2,59.6,35.8,29.6,55.3,34.2,27.8,95,94,85,30.17,29.87,9,2,9,1.61
2014-2-3,29.6,27.4,25.0,28.3,26.0,23.3,96,94,93,30.34,30.13,4,0,4,0.03
2014-2-4,33.0,31.5,29.0,32.2,30.6,28.0,97,97,96,30.23,29.82,5,1,5,0.00
2014-2-5,33.4,29.3,25.4,32.3,27.2,22.5,97,92,87,30.51,29.94,8,1,8,0.01
2014-2-6,25.3,21.6,19.0,22.5,19.0,16.6,91,89,88,30.57,30.46,5,1,5,0.00
2014-2-7,25.0,22.1,18.8,22.2,19.4,15.9,98,89,86,30.50,30.33,4,0,4,0.00
2014-2-8,35.7,30.4,24.5,33.3,28.6,22.1,96,93,89,30.33,30.13,3,0,3,0.01
2014-2-9,36.0,33.7,31.6,33.4,32.0,29.3,97,93,87,30.23,30.13,6,0,6,0.00
2014-2-10,35.7,28.9,24.4,29.4,22.9,16.0,91,79,57,30.36,30.21,12,2,12,0.00
2014-2-11,34.2,25.2,17.0,20.3,15.7,10.8,80,67,53,30.43,30.24,8,2,8,0.00
2014-2-12,31.7,28.2,25.8,29.0,23.9,19.4,93,84,74,30.25,30.00,4,0,4,0.01
2014-2-13,50.7,36.6,21.4,32.7,26.2,19.5,95,70,32,30.03,29.86,11,1,11,0.01
2014-2-14,48.1,40.2,32.0,45.3,36.6,27.2,95,87,74,30.06,29.64,11,1,11,0.39
2014-2-15,44.9,32.5,23.3,30.6,24.9,20.9,92,75,48,30.24,30.05,8,0,8,0.00
2014-2-16,57.1,44.0,34.7,39.4,35.0,30.6,88,72,49,30.17,30.04,5,1,5,0.00
2014-2-17,68.1,51.9,37.1,59.1,43.9,33.3,87,75,54,30.14,29.87,16,2,16,0.00
2014-2-18,72.8,56.1,35.5,61.0,46.1,32.6,95,72,40,30.15,29.86,14,2,14,0.00
2014-2-19,65.8,60.8,56.1,61.0,58.4,51.1,96,92,83,30.01,29.89,10,1,10,0.02
2014-2-24,50.9,45.5,42.6,26.8,25.1,23.5,53,45,35,30.21,30.12,3,1,5,0.00
2014-2-25,54.2,43.6,35.7,31.5,27.3,24.2,78,54,33,30.18,30.08,3,1,7,0.00
2014-2-26,36.5,29.4,21.6,24.2,15.2,10.2,73,56,36,30.25,30.08,4,2,7,0.00
2014-2-27,48.9,33.4,21.0,21.6,17.1,13.6,81,55,27,30.14,30.03,3,1,6,0.00
2014-2-28,57.4,40.9,27.0,41.2,25.7,17.1,85,58,25,30.09,29.95,4,1,6,0.03
2014-3-1,69.4,54.7,44.4,53.6,45.3,38.3,83,71,55,30.12,30.01,2,0,4,0.00
2014-3-2,59.5,43.8,32.3,54.8,40.3,30.6,95,88,77,30.16,29.98,4,1,5,1.65
2014-3-4,28.1,27.2,26.7,27.1,26.0,25.2,96,95,94,30.21,30.16,0,0,0,0.00
2014-3-5,32.8,30.7,28.2,32.0,29.9,27.2,97,97,96,30.24,30.15,2,0,3,0.09
2014-3-6,40.7,34.0,30.2,35.8,32.0,28.8,98,93,77,30.16,30.05,1,0,3,0.43
2014-3-7,60.2,41.7,27.1,46.3,36.2,25.9,97,82,57,30.09,29.97,3,0,5,0.25
2014-3-8,65.1,50.1,37.6,50.4,43.4,36.3,98,79,54,30.24,30.02,4,1,6,0.00
2014-3-9,49.5,44.1,39.9,40.7,38.7,36.8,89,81,69,30.31,30.15,2,0,4,0.00
2014-3-10,68.4,52.0,37.6,50.7,44.1,36.1,97,77,47,30.16,29.87,5,1,8,0.00
2014-3-11,78.2,62.8,47.7,60.6,54.8,46.3,97,77,50,29.87,29.57,5,2,8,0.00
2014-3-12,65.7,50.5,38.1,60.9,39.0,25.4,89,66,41,30.16,29.52,7,3,14,0.00
2014-3-13,64.0,27.7,30.1,33.9,-18.1,-99.9,91,39,31,30.25,30.11,4,0,7,0.00
2014-3-14,60.6,13.3,52.4,41.3,-66.7,-99.9,65,13,45,30.13,30.02,7,2,14,0.00
2014-3-15,69.8,57.4,46.3,53.5,47.0,40.2,88,69,51,30.07,29.86,3,1,6,0.00
2014-3-16,59.1,49.2,36.0,55.0,47.7,33.9,97,94,82,29.86,29.61,4,2,9,0.73
2014-3-17,46.4,37.7,32.5,38.2,33.1,28.3,94,84,71,29.90,29.80,3,1,6,0.00
2014-3-18,63.2,46.7,30.6,46.2,39.4,29.5,97,78,52,29.93,29.70,6,2,8,0.00
2014-3-19,63.0,54.9,46.3,51.8,44.2,39.8,87,68,50,30.14,29.83,5,3,11,0.00
2014-3-20,67.3,51.8,35.5,40.9,34.5,29.4,93,57,27,30.21,30.04,3,0,5,0.00
2014-3-21,71.7,57.2,40.1,43.0,36.4,30.3,72,48,29,30.07,29.87,4,1,10,0.00
2014-3-22,67.9,58.4,46.7,46.6,42.1,38.2,86,56,39,30.14,29.92,4,1,7,0.07
2014-3-23,54.0,45.1,38.5,41.5,33.4,26.6,90,66,37,30.32,30.13,4,2,8,0.06
2014-3-24,56.6,43.4,30.8,26.9,23.2,16.4,74,47,23,30.31,30.06,3,1,6,0.00
2014-3-25,49.5,41.9,34.1,31.2,24.1,17.9,75,51,30,30.28,30.10,6,2,9,0.00
2014-3-26,58.8,43.1,28.3,28.6,22.9,19.2,78,48,23,30.39,30.12,4,1,6,0.00
2014-3-27,68.8,55.7,49.9,58.0,42.4,26.6,97,64,40,30.12,29.78,6,2,9,0.56
2014-3-28,72.5,62.7,58.7,65.2,60.0,57.6,97,91,73,29.95,29.83,3,0,4,0.02
2014-4-1,65.3,64.3,63.3,56.8,56.5,56.3,78,76,74,29.97,29.95,0,0,1,0.00
2014-4-2,79.5,70.0,60.8,65.9,61.7,55.7,87,76,59,30.00,29.86,4,1,8,0.00
2014-4-3,82.0,73.8,68.6,69.1,65.2,62.8,92,75,57,29.86,29.67,5,3,10,0.02
2014-4-4,74.3,58.5,47.6,66.5,48.7,37.5,96,71,51,30.12,29.61,6,3,9,0.67
2014-4-5,57.3,49.2,40.2,40.7,37.5,35.1,84,65,48,30.20,30.07,3,1,6,0.00
2014-4-6,61.4,51.7,42.0,48.7,41.4,36.9,95,71,43,30.08,29.71,3,1,5,0.46
2014-4-7,51.5,49.8,44.8,50.7,47.5,43.0,97,92,81,29.87,29.51,4,2,7,0.27
2014-4-8,59.5,51.4,47.4,50.1,46.4,44.3,92,83,63,30.02,29.81,5,1,5,0.09
2014-4-9,67.2,54.5,42.1,44.4,40.1,35.1,91,63,32,30.19,30.02,4,1,11,0.00
2014-4-10,79.4,64.6,49.0,52.6,46.5,40.3,79,54,36,30.11,29.93,6,2,12,0.00
2014-4-11,78.0,67.6,60.0,55.7,52.3,47.9,76,59,41,30.10,29.99,6,2,9,0.00
2014-4-12,80.0,68.5,55.8,60.8,56.7,51.6,89,67,47,30.08,29.88,5,2,12,0.00
2014-4-13,68.9,66.9,65.3,60.4,59.5,58.2,83,77,69,29.92,29.87,3,2,6,0.00
2014-4-14,52.2,46.2,40.6,51.1,44.6,36.4,96,94,85,30.01,29.78,4,2,6,0.78
2014-4-15,51.4,42.3,35.1,36.7,29.8,21.4,86,63,39,30.26,30.01,4,1,7,0.08
2014-4-16,64.1,47.5,32.6,37.2,29.8,26.3,92,56,25,30.31,30.10,3,1,4,0.04
2014-4-17,72.6,57.3,40.7,46.4,41.5,34.3,87,58,35,30.30,30.17,3,0,6,0.02
2014-4-18,73.8,62.5,51.8,56.2,51.8,44.4,84,69,50,30.24,30.13,2,0,5,0.00
2014-4-19,80.7,64.9,50.3,54.2,48.9,43.9,95,62,30,30.20,30.10,2,0,4,0.01
2014-4-20,83.1,66.5,51.0,52.9,49.4,46.3,87,58,30,30.20,30.05,2,0,3,0.00
2014-4-21,77.6,67.7,60.0,62.4,56.8,51.0,95,69,48,30.07,29.90,2,0,6,0.00
2014-4-22,77.9,66.1,57.4,64.1,56.8,45.5,97,76,36,29.93,29.87,1,0,4,0.01
2014-4-23,78.8,63.6,48.2,49.3,44.5,38.9,90,54,25,30.04,29.91,2,0,3,0.00
2014-4-24,83.5,65.5,50.6,64.4,52.6,42.1,97,66,40,29.92,29.64,3,0,6,0.45
2014-4-25,76.3,65.0,56.0,64.3,52.1,42.8,97,67,32,29.98,29.70,2,0,6,0.00
2014-4-26,83.9,66.7,50.5,59.4,53.2,47.5,93,66,39,29.96,29.82,2,0,4,0.00
2014-4-27,69.8,66.6,63.9,67.6,63.3,56.3,97,90,76,29.83,29.58,8,0,8,1.04
2014-4-28,74.4,69.2,61.4,68.7,66.2,58.1,97,90,73,29.71,29.47,9,1,9,0.73
2014-4-29,68.3,60.9,54.2,59.6,53.9,48.2,94,79,54,29.78,29.58,2,0,5,0.00
2014-4-30,57.3,52.6,46.6,51.9,46.1,44.2,92,79,64,30.03,29.78,2,0,3,0.00
2014-5-1,65.4,53.7,43.5,46.8,43.6,37.9,96,72,37,30.04,29.96,7,0,7,0.00
2014-5-2,69.6,57.7,47.0,48.6,45.0,40.3,93,66,38,30.02,29.90,7,0,7,0.00
2014-5-3,80.3,64.9,48.5,52.0,47.4,43.3,89,58,28,30.00,29.92,9,0,9,0.00
2014-5-4,89.3,73.6,57.6,58.4,51.6,47.1,78,49,25,30.03,29.88,13,1,13,0.00
2014-5-5,86.9,74.9,62.4,57.1,52.9,45.8,76,48,27,29.93,29.78,13,1,13,0.00
2014-5-6,85.2,72.5,61.0,64.3,57.9,53.3,86,62,35,29.89,29.79,7,1,12,0.00
2014-5-7,83.7,73.6,64.3,65.4,62.0,58.9,85,68,50,29.96,29.84,15,1,15,0.00
2014-5-8,84.3,75.5,68.1,69.7,65.3,62.2,86,71,56,30.04,29.90,10,0,10,0.00
2014-5-9,75.0,69.6,63.8,68.1,65.1,62.6,97,86,68,29.97,29.85,10,0,10,0.68
2014-5-10,84.5,72.7,62.8,70.1,65.5,61.3,96,80,52,29.98,29.87,10,0,10,0.00
2014-5-11,86.3,75.6,67.3,75.4,69.8,65.2,96,83,63,29.99,29.88,9,0,9,0.00
2014-5-12,88.0,77.8,70.4,73.8,70.2,67.8,92,78,54,30.01,29.90,11,0,11,0.00
2014-5-13,81.8,71.3,61.1,75.8,67.1,60.2,97,87,68,30.09,29.92,14,0,14,1.12
2014-5-14,61.1,55.6,47.7,60.2,54.4,46.6,98,96,89,30.08,29.90,5,0,5,1.03
2014-5-15,66.1,54.6,46.7,53.4,48.6,45.3,96,82,52,30.17,30.05,8,0,8,0.01
2014-5-16,68.8,59.0,47.8,53.6,47.7,43.4,100,69,41,30.11,30.04,5,0,9,0.00
2014-5-17,57.5,54.1,50.7,53.9,51.4,45.4,97,91,67,30.17,30.07,2,0,2,0.40
2014-5-18,70.2,59.7,53.6,62.4,56.9,52.8,100,91,72,30.21,30.13,2,0,4,0.10
2014-5-19,80.3,67.8,56.1,69.4,61.9,55.0,98,83,60,30.17,30.00,8,0,8,0.00
2014-5-20,84.2,74.3,64.1,69.5,62.8,58.8,85,69,50,30.11,29.98,16,1,16,0.00
2014-5-21,84.8,76.6,70.4,69.2,64.4,60.5,81,67,49,30.09,29.97,17,1,17,0.00
2014-5-22,87.5,76.2,65.9,73.3,67.5,63.6,94,76,51,30.11,29.99,8,0,8,0.00
2014-5-23,87.3,75.7,66.7,69.3,65.3,60.2,90,72,45,30.07,29.98,7,0,7,0.00
2014-5-24,86.8,76.1,66.9,74.0,68.1,62.8,92,77,56,30.07,29.96,6,0,6,0.00
2014-5-25,86.3,74.8,68.0,72.7,69.0,65.6,93,83,56,30.06,29.97,7,0,7,0.00
2014-5-26,88.3,76.9,67.0,72.5,68.2,64.8,95,76,50,30.09,29.98,8,0,8,0.00
2014-5-27,82.1,72.6,67.0,74.2,69.0,61.6,97,89,65,30.03,29.90,10,0,10,0.88
2014-5-28,67.4,67.1,66.9,66.5,66.2,66.0,97,97,97,29.95,29.92,0,0,0,0.00
2014-6-6,68.2,67.7,67.2,67.3,66.8,66.2,97,97,97,29.92,29.90,0,0,0,0.19
2014-6-7,86.7,73.1,67.1,80.5,71.2,66.2,98,94,69,29.95,29.76,9,0,9,0.26
2014-6-8,69.5,68.5,68.0,68.8,67.9,67.4,98,98,97,29.91,29.84,1,0,1,0.08
2014-6-9,81.6,70.1,65.4,75.9,68.5,64.8,98,95,77,29.91,29.72,3,0,12,0.34
2014-6-10,77.0,70.2,67.7,71.4,68.3,67.1,98,94,79,29.78,29.67,11,0,11,0.30
2014-6-11,75.8,69.9,66.0,71.8,67.6,64.8,98,93,78,29.81,29.68,4,0,4,0.05
2014-6-12,85.0,71.6,65.3,75.9,67.7,64.3,98,89,61,29.90,29.79,7,0,7,0.22
2014-6-13,80.4,71.6,65.8,71.9,67.0,60.3,98,86,66,29.99,29.85,2,0,3,0.00
2014-6-14,83.0,70.6,59.3,69.2,62.6,56.8,93,77,51,30.06,29.92,3,0,3,0.00
2014-6-15,88.3,76.7,64.6,76.2,69.4,62.8,95,80,59,30.04,29.90,9,0,9,0.00
2014-6-16,89.2,79.3,70.8,78.0,72.7,69.3,96,81,59,30.11,29.99,7,0,7,0.00
2014-6-17,89.9,80.6,73.0,78.2,73.4,70.9,95,80,59,30.09,29.97,6,0,10,0.00
2014-6-18,90.5,80.4,73.0,79.6,74.5,71.2,95,83,61,30.06,29.97,10,0,10,0.02
2014-6-19,92.1,82.5,72.0,79.2,74.1,70.2,95,77,53,30.10,29.98,6,0,6,0.00
2014-6-20,90.3,81.0,73.1,79.4,74.3,71.5,96,81,57,30.06,29.93,7,0,7,0.00
2014-6-21,90.4,77.8,71.7,78.4,72.6,69.5,96,85,63,29.98,29.85,7,0,7,0.03
2014-6-22,90.9,78.8,70.0,80.2,72.9,68.8,97,83,59,29.93,29.80,4,0,4,0.00
2014-6-23,88.1,77.1,71.4,78.1,73.3,68.7,97,89,63,29.92,29.83,11,0,11,0.21
2014-6-24,79.7,74.9,71.0,76.4,72.5,69.8,97,92,81,29.97,29.86,5,0,7,0.50
2014-6-25,87.4,77.3,71.3,78.0,73.3,70.1,97,88,63,30.04,29.94,2,0,4,0.00
2014-6-26,85.0,75.8,69.3,76.8,72.0,67.5,97,89,70,30.02,29.92,6,0,6,0.05
2014-6-27,81.8,75.8,72.0,75.0,71.8,70.2,96,88,75,30.03,29.93,11,0,11,0.00
2014-6-28,83.2,73.5,69.9,78.6,71.8,68.7,98,95,83,30.11,29.99,10,0,10,0.87
2014-6-29,80.2,72.6,67.9,77.4,71.5,67.3,98,97,89,30.13,29.96,5,0,5,3.32
2014-6-30,89.2,81.2,75.0,79.3,76.1,74.3,98,85,64,30.00,29.83,12,0,12,0.00
2014-7-1,89.8,80.9,69.2,80.3,75.2,67.8,97,83,67,29.99,29.80,11,0,11,0.36
2014-7-2,86.0,75.5,68.4,79.0,71.6,67.1,98,88,66,30.03,29.86,4,0,4,0.03
2014-7-3,80.2,71.4,65.5,68.0,64.6,61.8,94,80,59,30.18,30.01,4,0,4,0.00
2014-7-4,80.0,68.1,61.8,67.8,62.7,59.1,93,83,58,30.25,30.17,2,0,2,0.00
2014-7-5,83.2,71.3,61.4,66.8,62.8,58.4,96,76,46,30.21,30.06,4,0,4,0.00
2014-7-6,85.8,73.5,62.8,71.7,66.0,61.0,95,79,50,30.10,29.95,3,0,4,0.00
2014-7-7,88.2,78.0,69.4,78.3,71.5,66.4,94,81,58,29.97,29.88,8,0,8,0.00
2014-7-8,87.5,79.7,72.7,79.7,74.1,69.2,97,83,72,29.98,29.85,12,0,12,0.93
2014-7-9,82.3,75.1,71.1,76.4,72.4,70.1,98,91,75,30.01,29.92,5,0,5,0.08
2014-7-10,85.5,76.3,68.7,77.0,71.0,67.0,98,85,62,30.07,29.99,2,0,2,0.00
2014-7-11,87.8,77.9,70.6,77.5,72.7,68.8,96,85,62,30.14,30.04,3,0,3,0.00
2014-7-12,91.0,80.3,71.7,80.3,74.4,70.5,97,83,60,30.15,30.02,4,0,4,0.00
2014-7-13,92.8,81.3,73.4,82.9,75.9,71.9,96,85,63,30.07,29.93,4,0,4,0.00
2014-7-14,92.8,82.3,74.9,81.4,76.6,73.3,96,84,64,29.95,29.79,10,0,10,0.00
2014-7-25,85.0,76.9,64.7,72.0,68.0,63.2,95,75,52,30.04,29.92,4,0,4,0.00
2014-7-26,92.3,79.9,67.4,81.9,73.7,65.9,96,82,63,29.99,29.89,10,0,10,0.00
2014-7-27,90.8,83.7,77.2,82.2,78.2,74.8,93,84,69,29.95,29.87,10,0,10,0.00
2014-7-28,84.7,77.2,69.3,78.6,68.6,64.2,94,76,57,30.04,29.91,5,0,5,0.00
2014-7-29,80.3,71.2,63.7,68.7,61.6,56.9,87,73,52,30.11,30.02,4,0,4,0.00
2014-7-30,84.3,70.8,59.6,68.4,62.6,57.9,95,77,48,30.10,30.02,6,0,6,0.00
2014-7-31,77.3,72.1,68.3,70.9,68.1,66.3,95,87,77,30.07,30.01,1,0,3,0.01
2014-8-1,84.7,74.8,68.4,73.0,69.2,66.8,95,84,64,30.05,29.97,3,0,3,0.01
2014-8-2,88.3,77.0,67.7,73.3,68.9,65.6,94,77,54,30.06,29.98,4,0,4,0.00
2014-8-3,89.6,77.8,69.3,74.2,68.9,64.8,88,75,56,30.07,29.97,4,0,4,0.00
2014-8-4,90.4,77.4,66.8,73.9,68.0,64.2,93,75,47,30.05,29.96,4,0,4,0.00
2014-8-5,90.0,78.2,67.8,74.7,69.8,65.8,95,77,49,30.06,29.96,3,0,3,0.00
2014-8-6,93.3,80.9,72.7,78.7,72.4,69.5,90,77,52,30.02,29.92,6,0,6,0.00
2014-8-7,90.2,76.6,71.2,78.5,72.9,69.2,97,89,63,29.96,29.85,11,0,11,0.06
2014-8-8,84.4,76.0,71.3,79.3,74.3,70.4,98,95,81,29.92,29.84,2,0,5,0.06
2014-8-9,90.0,79.7,74.7,80.9,75.9,71.7,98,89,68,29.96,29.86,5,0,5,0.00
2014-8-10,91.7,81.0,74.0,79.7,75.7,72.7,97,85,61,29.98,29.87,4,0,4,0.00
2014-8-18,76.2,75.5,75.0,73.5,73.2,73.0,94,93,91,29.84,29.80,1,0,1,0.00
2014-8-19,92.6,80.5,71.6,78.0,74.0,70.1,96,82,56,29.90,29.79,6,0,6,0.00
2014-8-20,96.0,84.5,76.8,78.5,75.6,71.9,95,76,48,30.01,29.84,10,0,10,0.00
2014-8-21,94.2,83.1,74.8,78.5,75.1,72.6,93,78,56,30.07,29.97,8,0,8,0.00
2014-8-22,95.8,83.9,74.8,79.0,76.0,73.3,95,79,54,30.05,29.92,7,0,7,0.00
2014-8-23,98.2,84.9,75.7,79.1,75.8,73.2,94,76,48,29.98,29.86,6,0,6,0.00
2014-8-24,98.0,84.0,74.7,80.0,75.3,70.2,93,77,52,29.94,29.84,5,0,5,0.00
2014-8-25,95.5,82.5,74.2,79.8,75.2,71.0,93,80,56,29.98,29.91,4,0,4,0.00
2014-8-26,91.6,80.8,74.7,77.7,73.9,71.0,95,81,60,30.08,29.97,4,0,4,0.00
2014-8-27,91.9,79.8,71.2,75.8,71.8,69.7,96,78,52,30.07,29.96,7,0,7,0.00
2014-8-28,94.3,80.0,71.0,75.8,71.8,68.0,95,78,44,30.00,29.88,5,0,5,0.00
2014-8-29,93.9,79.1,71.6,77.0,72.3,68.2,96,81,47,29.96,29.87,7,0,7,0.06
2014-8-30,77.6,74.7,71.9,76.1,73.0,70.3,97,94,87,30.01,29.94,4,0,4,0.73
2014-8-31,86.3,76.8,71.9,78.7,74.2,71.0,98,92,73,30.03,29.93,8,0,8,0.93
2014-9-1,89.5,80.3,74.4,79.7,75.4,73.2,97,86,63,30.02,29.90,10,0,10,0.00
2014-9-2,86.8,79.4,74.0,79.4,75.7,72.5,96,89,75,30.01,29.86,8,0,8,0.03
2014-9-3,88.5,77.2,70.9,79.2,73.4,70.0,98,89,63,30.02,29.92,4,0,4,0.01
2014-9-4,92.3,79.7,71.4,79.7,74.2,70.2,97,84,58,30.05,29.97,5,0,5,0.00
2014-9-5,93.7,80.2,71.7,80.2,74.4,69.9,95,84,58,30.10,29.96,4,0,5,0.00
2014-9-6,86.7,75.8,68.6,80.1,73.6,67.1,97,93,76,30.06,29.97,4,0,4,1.48
2014-9-7,83.5,72.4,65.6,74.4,68.6,64.1,96,88,71,30.07,29.97,2,0,2,0.00
2014-9-8,85.6,73.9,66.5,73.7,68.6,65.3,97,85,61,30.05,29.95,4,0,4,0.00
2014-9-9,89.8,76.9,66.8,78.7,71.7,65.3,96,85,60,30.02,29.86,3,0,4,0.00
2014-9-10,89.8,81.4,74.9,79.6,75.0,72.6,93,82,64,29.86,29.78,9,0,9,0.00
2014-9-11,80.3,72.4,66.3,76.7,70.8,65.1,98,95,80,30.06,29.84,3,0,4,6.46
2014-9-12,66.3,63.5,59.3,65.1,61.9,57.6,97,95,92,30.17,30.05,4,0,4,0.00
2014-9-13,65.0,60.4,57.9,59.8,57.1,54.9,95,89,78,30.26,30.15,4,0,5,0.00
2014-9-14,76.9,64.5,56.3,65.2,59.2,53.8,95,84,60,30.25,30.13,4,0,4,0.00
2014-9-15,80.2,69.1,61.4,71.0,65.1,59.3,96,88,65,30.16,30.05,2,0,2,0.01
2014-9-16,74.8,69.3,65.2,70.7,66.9,62.6,97,92,85,30.11,30.00,1,0,1,0.00
2014-9-17,70.7,65.4,60.0,66.1,62.7,58.3,96,91,80,30.03,29.84,3,0,3,0.01
2014-9-18,79.3,69.1,64.0,72.4,66.4,62.8,97,91,79,29.97,29.88,2,0,3,0.00
2014-9-19,84.5,72.3,63.8,75.3,68.5,62.8,97,88,69,30.01,29.95,4,0,4,0.00
2014-9-20,87.8,75.2,67.1,75.8,70.7,66.2,97,87,60,30.06,29.92,5,0,5,0.00
2014-9-21,87.0,75.3,66.0,77.4,69.5,57.2,96,83,65,30.05,29.92,4,0,4,0.00
2014-9-22,77.7,66.4,57.6,62.2,57.0,52.3,89,73,51,30.19,30.05,5,0,5,0.00
2014-9-23,79.4,64.3,53.1,58.7,54.1,49.3,88,71,44,30.23,30.12,0,0,0,0.00
2014-9-24,83.8,67.8,56.7,67.6,60.4,52.8,91,78,53,30.24,30.15,4,0,5,0.00
2014-9-25,84.0,69.8,59.4,69.9,63.0,58.0,96,81,49,30.23,30.11,4,0,4,0.00
2014-9-26,84.2,70.4,60.9,70.3,64.2,59.2,96,82,57,30.15,30.06,2,0,3,0.00
2014-9-27,82.7,72.1,65.1,73.0,67.3,63.3,95,86,67,30.10,30.01,3,0,3,0.00
2014-9-28,84.7,71.6,62.8,70.2,65.3,61.4,97,82,52,30.10,29.99,3,0,4,0.00
2014-9-29,84.8,72.1,63.2,71.2,65.2,61.1,97,80,55,30.01,29.89,2,0,4,0.00
2014-9-30,87.4,72.0,61.1,71.4,63.9,58.8,95,78,49,29.93,29.82,3,0,3,0.00
2014-10-1,87.3,73.3,64.5,73.3,67.0,62.1,93,82,53,29.91,29.83,8,0,8,0.00
2014-10-2,84.4,73.2,65.4,78.6,70.3,63.9,97,91,76,29.92,29.72,7,0,8,0.60
2014-10-3,74.6,65.7,52.3,65.2,59.0,43.3,98,80,53,30.10,29.70,4,0,6,0.16
2014-10-4,66.0,53.9,44.9,46.3,42.1,31.9,94,68,32,30.10,29.96,10,0,10,0.00
2014-10-5,77.6,59.2,46.0,58.2,50.0,43.5,93,75,46,29.96,29.78,11,0,12,0.00
2014-10-6,73.1,65.1,59.4,64.9,60.5,53.8,97,86,72,29.90,29.79,8,0,12,0.23
2014-10-7,82.3,70.5,64.1,73.9,67.3,62.6,98,90,73,29.94,29.81,9,0,9,1.34
2014-10-12,70.7,69.6,69.3,70.1,68.8,68.4,98,97,97,29.90,29.85,3,0,3,0.15
2014-10-13,76.7,69.9,66.3,71.2,68.1,65.6,98,94,82,29.90,29.65,11,0,11,0.01
2014-10-20,57.3,57.3,57.3,54.7,54.7,54.6,91,91,91,30.01,30.00,0,0,0,0.00
2014-10-21,76.6,62.0,51.8,59.6,54.1,50.3,97,78,45,30.09,30.00,0,0,0,0.00
2014-10-22,69.3,57.0,49.0,51.3,48.8,45.9,91,75,49,30.25,30.09,0,0,0,0.00
2014-10-23,64.7,53.2,43.6,52.4,47.6,41.8,95,82,54,30.21,30.10,0,0,0,0.00
2014-10-24,74.4,57.8,45.2,60.1,52.4,43.9,97,84,59,30.15,30.05,0,0,0,0.00
2014-10-25,81.8,66.1,54.7,70.6,61.6,53.3,96,86,64,30.08,29.99,0,0,0,0.00
2014-10-26,85.5,70.6,60.5,71.7,65.5,59.6,98,85,58,30.00,29.88,7,0,7,0.00
2014-10-27,81.6,69.7,61.8,64.4,61.4,54.7,97,77,46,29.96,29.86,13,0,13,0.00
2014-10-28,69.4,63.4,52.5,66.8,61.1,51.6,97,92,80,30.09,29.91,8,0,8,0.88
2014-10-29,69.2,56.3,48.8,57.0,51.2,46.5,98,85,45,30.18,30.08,2,0,4,0.17
2014-10-30,69.1,54.3,42.9,51.9,46.6,41.0,95,77,43,30.17,29.97,6,0,6,0.00
2014-10-31,57.1,49.9,39.9,51.4,42.0,27.5,96,75,43,30.31,29.95,7,0,7,0.00
2014-11-1,52.8,41.4,34.3,34.9,30.8,26.7,86,67,47,30.42,30.30,6,0,6,0.00
2014-11-2,58.4,42.7,30.8,39.9,34.2,28.8,95,74,40,30.50,30.33,4,0,4,0.00
2014-11-3,68.3,52.4,41.5,44.6,39.7,36.7,86,65,34,30.40,30.22,8,0,8,0.00
2014-11-4,74.1,60.3,49.4,59.3,53.0,40.7,96,78,58,30.23,30.08,9,0,9,0.31
2014-11-5,57.7,55.7,54.1,56.9,55.0,53.5,98,97,97,30.20,30.12,1,0,1,1.14
2014-11-6,63.9,53.4,41.5,53.6,46.3,37.6,98,79,47,30.28,30.11,8,0,8,0.00
2014-11-7,57.6,44.7,37.2,41.7,37.5,34.4,92,77,47,30.26,30.02,4,0,4,0.00
2014-11-8,57.9,48.5,39.3,48.4,43.4,37.4,94,83,66,30.10,29.97,8,0,8,0.00
2014-11-9,60.5,47.0,36.0,44.8,40.9,34.8,97,81,50,30.13,29.94,7,0,7,0.00
2014-11-10,71.2,56.5,43.4,52.7,46.3,41.3,94,71,46,29.95,29.75,10,0,10,0.00
2014-11-11,62.3,52.2,37.3,60.4,48.3,31.2,95,87,67,30.19,29.81,7,0,7,0.03
2014-11-12,40.4,36.2,32.8,32.9,30.1,27.5,85,79,71,30.37,30.19,6,0,6,0.00
2014-11-13,37.8,32.2,26.7,27.9,21.5,17.7,89,65,48,30.46,30.35,4,0,5,0.02
2014-11-14,39.3,29.3,23.1,23.8,20.7,18.7,84,71,49,30.49,30.38,4,0,5,0.01
2014-11-15,46.9,36.3,25.7,31.7,23.7,19.6,83,62,35,30.41,30.17,5,0,5,0.00
2014-11-16,40.7,38.3,35.6,39.9,36.5,31.6,97,93,73,30.22,29.93,4,0,4,0.40
2014-11-17,35.5,30.8,25.0,34.4,24.0,13.4,96,76,58,30.37,29.96,12,1,12,0.01
2014-11-18,37.2,27.9,20.2,23.5,17.3,12.5,81,65,46,30.49,30.32,8,0,8,0.00
2014-11-19,53.7,41.5,28.7,37.4,31.0,23.3,84,68,46,30.32,30.09,21,1,21,0.00
2014-11-20,55.0,42.5,31.0,35.8,30.8,26.9,92,65,39,30.30,30.18,5,0,5,0.00
2014-11-21,56.1,48.4,42.3,43.2,36.9,30.0,79,65,56,30.36,30.26,5,0,5,0.00
2014-11-22,66.2,56.2,48.3,50.6,45.9,43.2,92,70,46,30.27,29.91,8,0,8,0.00
2014-11-23,62.5,59.4,56.0,60.4,57.1,50.3,98,92,81,29.91,29.30,21,1,21,0.72
2014-11-24,62.3,51.4,41.4,58.1,41.3,34.0,89,69,48,30.06,29.38,21,2,21,0.00
2014-11-25,47.9,39.8,30.6,35.5,30.7,25.6,92,72,44,30.24,30.06,7,0,7,0.00
2014-11-26,49.8,39.0,29.2,39.6,33.0,27.4,94,81,53,30.19,29.95,10,0,10,0.00
2014-11-27,44.9,38.2,31.2,33.9,31.4,28.1,93,77,63,30.50,30.19,9,1,9,0.00
2014-11-28,54.2,40.7,28.5,33.0,30.0,26.0,92,68,40,30.45,30.07,9,1,9,0.00
2014-11-29,66.1,57.9,44.5,57.7,50.4,32.3,88,76,62,30.07,29.90,19,2,19,0.00
2014-11-30,70.8,66.1,62.2,60.9,58.9,56.6,87,78,70,30.15,29.93,19,2,19,0.00
2014-12-1,63.6,44.2,36.1,57.2,41.7,34.7,96,91,78,30.42,30.15,8,1,8,0.09
2014-12-2,38.9,37.2,34.3,37.6,35.8,33.5,97,95,90,30.36,30.24,4,0,4,0.00
2014-12-3,46.8,43.0,38.8,44.1,41.5,37.5,97,94,86,30.35,30.23,4,0,4,0.08
2014-12-4,60.0,51.5,44.4,56.4,49.8,43.6,97,94,84,30.27,30.17,6,0,6,0.00
2014-12-5,65.5,59.6,52.7,64.9,58.9,51.9,100,97,95,30.18,30.01,9,0,9,0.79
2014-12-6,65.3,50.3,43.0,64.7,47.8,39.1,98,91,85,30.48,30.01,8,1,8,0.04
2014-12-7,45.8,42.9,40.9,39.2,38.1,36.6,92,83,76,30.48,30.28,7,1,7,0.00
2014-12-8,56.2,45.4,36.8,44.0,40.5,35.5,97,84,57,30.31,30.19,8,0,8,0.00
2014-12-9,48.6,40.3,33.7,42.6,36.2,30.8,98,86,69,30.35,30.20,10,1,10,0.00
2014-12-10,43.4,38.7,33.2,36.2,33.8,30.8,94,83,72,30.37,30.24,5,0,5,0.00
2014-12-11,43.0,39.3,33.0,36.8,32.9,29.8,90,78,69,30.34,30.25,4,0,4,0.00
2014-12-12,57.3,46.6,39.2,44.4,38.9,34.3,85,75,61,30.41,30.30,4,0,5,0.00
2014-12-13,54.1,49.6,46.4,43.8,40.6,37.6,82,71,62,30.33,30.19,2,0,5,0.00
2014-12-14,63.6,51.7,42.8,52.9,46.7,40.3,95,84,67,30.19,30.00,4,0,6,0.00
2014-12-15,59.5,52.4,46.1,58.1,50.1,42.9,97,92,74,30.00,29.75,11,2,11,0.30
2014-12-16,49.4,45.0,33.8,43.1,37.5,30.8,89,75,66,30.30,29.89,10,2,10,0.00
2014-12-17,41.0,36.3,30.8,36.2,32.9,29.3,95,88,78,30.35,30.23,4,0,4,0.01
2014-12-18,45.2,40.6,36.4,40.2,37.8,34.6,96,90,77,30.29,30.17,3,0,3,0.20
2014-12-19,44.0,40.8,37.9,39.2,36.8,33.5,92,86,77,30.28,30.18,4,0,4,0.00
2014-12-20,50.7,41.5,36.2,38.9,35.4,32.6,91,79,63,30.28,30.21,5,0,5,0.00
2014-12-21,56.7,42.5,31.4,40.3,34.6,29.1,92,75,50,30.25,29.92,6,0,6,0.00
2014-12-22,58.0,52.3,42.6,55.0,50.5,40.1,97,94,86,29.92,29.59,9,1,9,0.19
2014-12-23,55.8,50.9,47.8,55.0,49.2,45.1,100,94,88,29.75,29.61,8,0,8,0.03
2014-12-24,48.2,43.9,41.1,45.6,41.0,37.4,95,90,78,30.00,29.62,6,1,8,0.02
2014-12-25,54.6,43.7,34.3,40.2,37.1,32.9,96,79,53,30.20,29.99,12,1,12,0.00
2014-12-26,56.4,47.3,38.7,47.1,40.8,35.6,91,79,59,30.26,30.12,9,1,9,0.00
2014-12-27,54.2,51.9,46.5,53.1,50.0,45.5,97,93,83,30.16,30.06,7,1,7,0.39
2014-12-28,46.5,39.2,37.4,45.7,37.7,35.8,97,94,92,30.22,30.10,8,0,8,0.04
2014-12-29,37.5,36.6,35.8,36.2,33.8,31.5,95,89,84,30.33,30.16,5,0,5,0.00
2014-12-30,43.2,35.1,29.9,32.6,28.9,24.9,91,79,59,30.59,30.33,8,1,8,0.00
2014-12-31,38.2,30.9,26.5,25.2,22.6,18.6,85,71,56,30.63,30.44,5,0,5,0.00
2015-1-1,41.2,35.8,31.7,36.4,29.0,21.6,95,77,53,30.45,30.25,4,0,4,0.07
2015-1-2,47.9,42.0,36.8,47.4,41.1,35.8,98,96,93,30.31,30.02,5,0,5,0.02